Time;durP1;ratioP1;P1;durP2;ratioP2;P2;SDS_P1;SDS_P2;PMS_P1;PMS_P2;Temp;Humidity;BMP_temperature;BMP_pressure;BME280_temperature;BME280_humidity;BME280_pressure;Samples;Min_cycle;Max_cycle;Signal;HPM_P1;HPM_P2
2021/03/24 00:01:07;;;;;;;;;;;11.60;44.60;;;;;;4950310;28;75183;-69
2021/03/24 00:03:33;;;;;;;;;;;11.60;45.10;;;;;;4950954;28;75403;-67
2021/03/24 00:05:59;;;;;;;;;;;11.50;45.00;;;;;;4950843;28;75263;-65
2021/03/24 00:08:24;;;;;;;;;;;11.50;45.10;;;;;;4949319;28;77945;-68
2021/03/24 00:10:50;;;;;;;;;;;11.50;45.30;;;;;;4950774;28;75242;-67
2021/03/24 00:13:16;;;;;;;;;;;11.40;46.30;;;;;;4948970;28;77215;-68
2021/03/24 00:15:41;;;;;;;;;;;11.40;45.80;;;;;;4951073;28;75148;-68
2021/03/24 00:18:09;;;;;;;;;;;11.30;46.80;;;;;;4948914;28;77063;-68
2021/03/24 00:20:36;;;;;;;;;;;11.20;46.80;;;;;;4949147;28;78016;-67
2021/03/24 00:23:02;;;;;;;;;;;11.10;48.00;;;;;;4949301;28;77131;-69
2021/03/24 00:25:28;;;;;;;;;;;11.00;46.60;;;;;;4951023;28;75143;-69
2021/03/24 00:27:54;;;;;;;;;;;11.00;46.60;;;;;;4949508;28;75573;-67
2021/03/24 00:30:21;;;;;;;;;;;11.00;46.20;;;;;;4949153;28;77077;-68
2021/03/24 00:32:47;;;;;;;;;;;11.00;46.00;;;;;;4951079;28;74386;-69
2021/03/24 00:35:13;;;;;;;;;;;11.00;46.40;;;;;;4949121;28;74573;-68
2021/03/24 00:37:39;;;;;;;;;;;11.00;47.00;;;;;;4950337;28;75281;-69
2021/03/24 00:40:06;;;;;;;;;;;10.90;46.50;;;;;;4948895;28;74710;-68
2021/03/24 00:42:31;;;;;;;;;;;10.90;46.20;;;;;;4950640;28;75140;-70
2021/03/24 00:44:57;;;;;;;;;;;10.90;46.00;;;;;;4950405;28;74979;-69
2021/03/24 00:47:22;;;;;;;;;;;10.90;46.00;;;;;;4950018;28;76124;-69
2021/03/24 00:49:48;;;;;;;;;;;10.90;46.00;;;;;;4949842;28;76338;-68
2021/03/24 00:52:13;;;;;;;;;;;11.00;45.90;;;;;;4950565;28;75182;-69
2021/03/24 00:54:39;;;;;;;;;;;10.90;46.60;;;;;;4948700;28;76739;-68
2021/03/24 00:57:05;;;;;;;;;;;10.90;47.30;;;;;;4949803;28;75072;-69
2021/03/24 00:59:30;;;;;;;;;;;10.70;47.30;;;;;;4950184;28;74917;-69
2021/03/24 01:01:56;;;;;;;;;;;10.70;47.00;;;;;;4950158;28;75164;-69
2021/03/24 01:04:22;;;;;;;;;;;10.70;46.70;;;;;;4949823;28;75162;-68
2021/03/24 01:06:47;;;;;;;;;;;10.70;46.50;;;;;;4948766;28;76856;-68
2021/03/24 01:09:13;;;;;;;;;;;10.80;46.40;;;;;;4948568;28;74711;-68
2021/03/24 01:11:40;;;;;;;;;;;10.80;46.40;;;;;;4949055;28;75471;-69
2021/03/24 01:14:06;;;;;;;;;;;10.80;46.40;;;;;;4953256;28;74417;-69
2021/03/24 01:16:32;;;;;;;;;;;10.80;46.40;;;;;;4951340;28;75379;-69
2021/03/24 01:18:57;;;;;;;;;;;10.70;48.30;;;;;;4952686;28;75142;-67
2021/03/24 01:21:23;;;;;;;;;;;10.60;47.20;;;;;;4952896;28;74404;-68
2021/03/24 01:23:48;;;;;;;;;;;10.50;48.00;;;;;;4967716;28;75477;-66
2021/03/24 01:26:15;;;;;;;;;;;10.50;47.50;;;;;;4951106;28;75507;-68
2021/03/24 01:28:40;;;;;;;;;;;10.50;47.80;;;;;;4952608;28;75215;-68
2021/03/24 01:31:06;;;;;;;;;;;10.40;48.30;;;;;;4952602;28;75244;-69
2021/03/24 01:33:31;;;;;;;;;;;10.40;48.40;;;;;;4952782;28;74398;-67
2021/03/24 01:35:57;;;;;;;;;;;10.30;48.20;;;;;;4968730;27;75675;-68
2021/03/24 01:38:23;;;;;;;;;;;10.30;48.00;;;;;;4952763;28;74632;-67
2021/03/24 01:40:50;;;;;;;;;;;10.30;48.00;;;;;;4952991;28;74448;-66
2021/03/24 01:43:18;;;;;;;;;;;10.20;48.70;;;;;;4950621;28;77355;-68
2021/03/24 01:46:02;;;;;;;;;;;10.20;48.20;;;;;;4953086;28;74506;-67
2021/03/24 01:48:28;;;;;;;;;;;10.20;47.80;;;;;;4952256;28;74948;-67
2021/03/24 01:50:54;;;;;;;;;;;10.20;47.90;;;;;;4950745;28;77088;-65
2021/03/24 01:53:19;;;;;;;;;;;10.10;48.00;;;;;;4950692;28;75732;-65
2021/03/24 01:55:45;;;;;;;;;;;10.10;48.90;;;;;;4952207;28;74550;-68
2021/03/24 01:58:11;;;;;;;;;;;10.10;48.40;;;;;;4950151;28;77218;-67
2021/03/24 02:00:39;;;;;;;;;;;10.00;48.10;;;;;;4950413;28;77155;-67
2021/03/24 02:03:05;;;;;;;;;;;10.10;48.20;;;;;;4950352;28;77878;-64
2021/03/24 02:05:30;;;;;;;;;;;10.00;48.40;;;;;;4952208;28;75109;-66
2021/03/24 02:08:00;;;;;;;;;;;9.90;48.10;;;;;;4950085;28;77274;-65
2021/03/24 02:10:32;;;;;;;;;;;9.90;48.10;;;;;;4952210;28;74954;-66
2021/03/24 02:13:04;;;;;;;;;;;10.00;48.10;;;;;;4952309;28;75044;-66
2021/03/24 02:15:31;;;;;;;;;;;10.00;48.20;;;;;;4950987;28;74793;-66
2021/03/24 02:17:57;;;;;;;;;;;9.90;48.20;;;;;;4951217;28;74495;-68
2021/03/24 02:20:29;;;;;;;;;;;10.00;48.00;;;;;;4952044;28;75130;-67
2021/03/24 02:22:58;;;;;;;;;;;9.90;48.30;;;;;;4951653;28;74978;-68
2021/03/24 02:25:40;;;;;;;;;;;10.00;48.20;;;;;;4951643;28;75606;-68
2021/03/24 02:28:08;;;;;;;;;;;10.00;48.20;;;;;;4950493;28;77653;-67
2021/03/24 02:30:35;;;;;;;;;;;10.00;48.20;;;;;;4951880;28;74615;-66
2021/03/24 02:33:03;;;;;;;;;;;10.00;48.20;;;;;;4951969;28;75277;-68
2021/03/24 02:35:33;;;;;;;;;;;10.00;48.30;;;;;;4951919;28;74580;-68
2021/03/24 02:38:00;;;;;;;;;;;10.00;48.30;;;;;;4951899;28;75045;-67
2021/03/24 02:40:27;;;;;;;;;;;9.90;48.30;;;;;;4950176;28;76138;-65
2021/03/24 02:42:53;;;;;;;;;;;9.90;48.50;;;;;;4951610;28;75745;-65
2021/03/24 02:45:21;;;;;;;;;;;9.90;48.50;;;;;;4951854;28;75174;-64
2021/03/24 02:47:48;;;;;;;;;;;9.90;48.40;;;;;;4951408;28;75812;-66
2021/03/24 02:50:14;;;;;;;;;;;9.90;48.70;;;;;;4949925;28;76390;-66
2021/03/24 02:52:40;;;;;;;;;;;9.90;48.80;;;;;;4952112;28;74613;-67
2021/03/24 02:55:06;;;;;;;;;;;9.90;48.70;;;;;;4951590;28;75194;-66
2021/03/24 02:57:32;;;;;;;;;;;9.80;48.90;;;;;;4949470;28;78558;-68
2021/03/24 02:59:57;;;;;;;;;;;9.80;48.90;;;;;;4951608;28;74630;-67
2021/03/24 03:02:25;;;;;;;;;;;9.80;49.00;;;;;;4951908;28;74462;-67
2021/03/24 03:04:53;;;;;;;;;;;9.80;49.00;;;;;;4950029;28;78525;-67
2021/03/24 03:07:21;;;;;;;;;;;9.80;49.10;;;;;;4951825;28;74530;-68
2021/03/24 03:09:47;;;;;;;;;;;9.90;49.10;;;;;;4949269;28;74732;-67
2021/03/24 03:12:17;;;;;;;;;;;9.80;49.10;;;;;;4952043;28;75379;-68
2021/03/24 03:14:43;;;;;;;;;;;9.70;49.20;;;;;;4951610;28;75018;-67
2021/03/24 03:17:11;;;;;;;;;;;9.70;49.30;;;;;;4951483;28;75180;-67
2021/03/24 03:19:40;;;;;;;;;;;9.70;49.40;;;;;;4949747;28;75342;-68
2021/03/24 03:22:23;;;;;;;;;;;9.70;49.60;;;;;;4951387;28;75058;-68
2021/03/24 03:24:58;;;;;;;;;;;9.70;49.50;;;;;;4949685;28;77128;-67
2021/03/24 03:27:25;;;;;;;;;;;9.70;49.50;;;;;;4951584;28;74430;-66
2021/03/24 03:29:52;;;;;;;;;;;9.60;49.60;;;;;;4951213;28;75206;-67
2021/03/24 03:32:20;;;;;;;;;;;9.60;49.50;;;;;;4951718;28;74375;-66
2021/03/24 03:34:48;;;;;;;;;;;9.60;49.60;;;;;;4948585;28;77041;-67
2021/03/24 03:37:14;;;;;;;;;;;9.60;49.50;;;;;;4951213;28;75161;-66
2021/03/24 03:39:40;;;;;;;;;;;9.60;49.60;;;;;;4951030;28;74918;-67
2021/03/24 03:42:06;;;;;;;;;;;9.50;49.70;;;;;;4951281;28;75209;-68
2021/03/24 03:44:34;;;;;;;;;;;9.50;50.10;;;;;;4951071;28;74780;-67
2021/03/24 03:47:04;;;;;;;;;;;9.50;50.40;;;;;;4950961;28;75158;-67
2021/03/24 03:49:30;;;;;;;;;;;9.40;50.10;;;;;;4950730;28;76084;-67
2021/03/24 03:51:58;;;;;;;;;;;9.40;50.20;;;;;;4951322;28;74389;-67
2021/03/24 03:54:31;;;;;;;;;;;9.30;50.40;;;;;;4951708;28;75606;-68
2021/03/24 03:56:56;;;;;;;;;;;9.30;50.60;;;;;;4950029;28;76322;-65
2021/03/24 03:59:28;;;;;;;;;;;9.30;50.30;;;;;;4949210;28;76680;-67
2021/03/24 04:01:55;;;;;;;;;;;9.20;50.30;;;;;;4950991;28;75220;-67
2021/03/24 04:04:47;;;;;;;;;;;9.10;51.10;;;;;;4950830;28;75816;-68
2021/03/24 04:07:12;;;;;;;;;;;9.10;51.40;;;;;;4947093;28;77395;-67
2021/03/24 04:09:39;;;;;;;;;;;8.90;50.80;;;;;;4950666;28;75400;-67
2021/03/24 04:12:06;;;;;;;;;;;8.90;50.90;;;;;;4949267;28;77953;-67
2021/03/24 04:14:32;;;;;;;;;;;8.90;51.00;;;;;;4950600;28;74611;-68
2021/03/24 04:16:58;;;;;;;;;;;8.80;51.70;;;;;;4950684;28;75111;-67
2021/03/24 04:19:25;;;;;;;;;;;8.70;52.00;;;;;;4950780;28;74629;-67
2021/03/24 04:22:01;;;;;;;;;;;8.60;52.60;;;;;;4950787;28;74933;-67
2021/03/24 04:24:28;;;;;;;;;;;8.40;52.30;;;;;;4950776;28;75237;-67
2021/03/24 04:26:56;;;;;;;;;;;8.30;52.20;;;;;;4950836;28;75248;-68
2021/03/24 04:29:32;;;;;;;;;;;8.20;52.50;;;;;;4950493;28;75049;-67
2021/03/24 04:31:59;;;;;;;;;;;8.10;52.10;;;;;;4950351;28;74541;-68
2021/03/24 04:34:25;;;;;;;;;;;8.10;52.30;;;;;;4950463;28;75676;-67
2021/03/24 04:37:11;;;;;;;;;;;8.00;53.00;;;;;;4950202;28;75182;-67
2021/03/24 04:39:49;;;;;;;;;;;7.90;53.60;;;;;;4949509;28;74718;-66
2021/03/24 04:42:17;;;;;;;;;;;7.70;53.60;;;;;;4950275;28;75771;-67
2021/03/24 04:44:45;;;;;;;;;;;7.60;53.90;;;;;;4950138;28;76452;-66
2021/03/24 04:47:14;;;;;;;;;;;7.50;54.10;;;;;;4949821;28;75246;-68
2021/03/24 04:49:43;;;;;;;;;;;7.50;53.60;;;;;;4950445;28;75214;-67
2021/03/24 04:52:09;;;;;;;;;;;7.50;53.10;;;;;;4949848;28;75122;-67
2021/03/24 04:54:36;;;;;;;;;;;7.50;53.00;;;;;;4964975;28;76417;-67
2021/03/24 04:57:05;;;;;;;;;;;7.50;52.70;;;;;;4950519;28;74625;-68
2021/03/24 04:59:34;;;;;;;;;;;7.60;52.40;;;;;;4949915;28;75723;-67
2021/03/24 05:02:05;;;;;;;;;;;7.70;52.50;;;;;;4948539;28;76852;-67
2021/03/24 05:04:33;;;;;;;;;;;7.60;53.60;;;;;;4950092;28;75324;-68
2021/03/24 05:07:17;;;;;;;;;;;7.50;54.10;;;;;;4950248;28;75222;-67
2021/03/24 05:09:43;;;;;;;;;;;7.40;54.20;;;;;;4950263;28;75292;-67
2021/03/24 05:12:27;;;;;;;;;;;7.40;54.20;;;;;;4948389;28;75537;-68
2021/03/24 05:14:56;;;;;;;;;;;7.40;54.10;;;;;;4950346;28;75267;-67
2021/03/24 05:17:27;;;;;;;;;;;7.40;53.70;;;;;;4949870;28;75242;-67
2021/03/24 05:19:57;;;;;;;;;;;7.40;53.50;;;;;;4948146;28;76327;-67
2021/03/24 05:22:23;;;;;;;;;;;7.40;53.20;;;;;;4948144;28;74584;-66
2021/03/24 05:24:49;;;;;;;;;;;7.40;53.10;;;;;;4950008;28;74676;-66
2021/03/24 05:27:22;;;;;;;;;;;7.40;53.20;;;;;;4950417;28;75326;-67
2021/03/24 05:29:53;;;;;;;;;;;7.40;53.00;;;;;;4948230;28;75393;-66
2021/03/24 05:32:27;;;;;;;;;;;7.50;52.70;;;;;;4950027;28;75293;-65
2021/03/24 05:34:56;;;;;;;;;;;7.50;52.30;;;;;;4949734;28;75114;-66
2021/03/24 05:37:28;;;;;;;;;;;7.50;53.50;;;;;;4949701;28;75184;-67
2021/03/24 05:40:04;;;;;;;;;;;7.40;52.60;;;;;;4964555;28;76426;-67
2021/03/24 05:42:38;;;;;;;;;;;7.40;52.60;;;;;;4949889;28;75187;-69
2021/03/24 05:45:10;;;;;;;;;;;7.40;52.80;;;;;;4950129;28;74519;-67
2021/03/24 05:47:54;;;;;;;;;;;7.30;53.10;;;;;;4949659;28;75270;-68
2021/03/24 05:50:23;;;;;;;;;;;7.30;52.60;;;;;;4947901;28;75711;-67
2021/03/24 05:53:07;;;;;;;;;;;7.20;53.10;;;;;;4947920;28;77867;-66
2021/03/24 05:55:52;;;;;;;;;;;7.20;52.80;;;;;;4949296;28;75336;-69
2021/03/24 05:58:18;;;;;;;;;;;7.20;52.90;;;;;;4950882;28;75187;-66
2021/03/24 06:00:43;;;;;;;;;;;7.20;52.50;;;;;;4952380;28;74907;-64
2021/03/24 06:03:17;;;;;;;;;;;7.10;52.80;;;;;;4952597;28;74432;-67
2021/03/24 06:05:45;;;;;;;;;;;7.10;53.10;;;;;;4952205;28;75249;-67
2021/03/24 06:08:11;;;;;;;;;;;7.10;53.20;;;;;;4952498;28;74347;-68
2021/03/24 06:11:03;;;;;;;;;;;7.00;53.10;;;;;;4952332;28;75706;-66
2021/03/24 06:13:47;;;;;;;;;;;7.00;53.10;;;;;;4951515;28;75271;-62
2021/03/24 06:16:12;;;;;;;;;;;7.00;53.40;;;;;;4952062;28;76022;-66
2021/03/24 06:18:47;;;;;;;;;;;7.00;54.00;;;;;;4952012;28;76522;-67
2021/03/24 06:21:13;;;;;;;;;;;7.00;53.50;;;;;;4951932;28;75820;-67
2021/03/24 06:23:41;;;;;;;;;;;7.00;54.10;;;;;;4952494;28;74617;-68
2021/03/24 06:26:25;;;;;;;;;;;6.90;55.50;;;;;;4950534;28;78197;-67
2021/03/24 06:29:04;;;;;;;;;;;6.80;55.70;;;;;;4952361;28;75320;-67
2021/03/24 06:31:48;;;;;;;;;;;6.80;55.50;;;;;;4951812;28;75059;-67
2021/03/24 06:34:32;;;;;;;;;;;6.90;56.80;;;;;;4950902;28;76736;-67
2021/03/24 06:36:58;;;;;;;;;;;6.80;57.80;;;;;;4951829;28;75118;-69
2021/03/24 06:39:42;;;;;;;;;;;6.60;57.20;;;;;;4950453;28;76484;-67
2021/03/24 06:42:13;;;;;;;;;;;6.60;57.50;;;;;;4952123;28;75696;-66
2021/03/24 06:44:59;;;;;;;;;;;6.60;57.40;;;;;;4952160;28;75230;-67
2021/03/24 06:47:31;;;;;;;;;;;6.60;57.40;;;;;;4946058;28;74845;-67
2021/03/24 06:50:16;;;;;;;;;;;6.60;56.40;;;;;;4951744;28;75116;-65
2021/03/24 06:52:45;;;;;;;;;;;6.70;56.50;;;;;;4951994;28;75203;-67
2021/03/24 06:55:23;;;;;;;;;;;6.80;55.60;;;;;;4951599;28;75254;-68
2021/03/24 06:57:51;;;;;;;;;;;6.90;55.10;;;;;;4950312;28;76668;-66
2021/03/24 07:00:23;;;;;;;;;;;6.90;54.70;;;;;;4951550;28;75028;-60
2021/03/24 07:03:07;;;;;;;;;;;7.00;54.40;;;;;;4950820;28;76981;-62
2021/03/24 07:05:51;;;;;;;;;;;7.10;54.10;;;;;;4951620;28;74934;-63
2021/03/24 07:08:16;;;;;;;;;;;7.20;53.80;;;;;;4951277;28;74485;-59
2021/03/24 07:11:01;;;;;;;;;;;7.40;53.20;;;;;;4950026;28;76417;-60
2021/03/24 07:13:37;;;;;;;;;;;7.40;52.90;;;;;;4951315;28;76373;-63
2021/03/24 07:16:21;;;;;;;;;;;7.50;52.70;;;;;;4951270;28;76091;-60
2021/03/24 07:18:53;;;;;;;;;;;7.60;52.90;;;;;;4951586;28;75221;-60
2021/03/24 07:21:21;;;;;;;;;;;7.60;52.50;;;;;;4949895;28;78046;-60
2021/03/24 07:23:59;;;;;;;;;;;7.50;52.90;;;;;;4951590;28;75315;-61
2021/03/24 07:26:43;;;;;;;;;;;7.60;52.50;;;;;;4951697;28;75285;-62
2021/03/24 07:29:21;;;;;;;;;;;7.60;52.50;;;;;;4951553;28;74435;-61
2021/03/24 07:32:07;;;;;;;;;;;7.70;52.20;;;;;;4951367;28;75024;-62
2021/03/24 07:34:45;;;;;;;;;;;7.90;52.20;;;;;;4949758;28;77939;-64
2021/03/24 07:37:30;;;;;;;;;;;7.90;52.10;;;;;;4949619;28;76166;-71
2021/03/24 07:40:14;;;;;;;;;;;7.90;51.50;;;;;;4949573;28;78335;-69
2021/03/24 07:42:39;;;;;;;;;;;8.10;51.00;;;;;;4949450;28;74522;-60
2021/03/24 07:45:08;;;;;;;;;;;8.20;50.70;;;;;;4951179;28;74376;-66
2021/03/24 07:47:48;;;;;;;;;;;8.40;50.20;;;;;;4950988;28;74997;-66
2021/03/24 07:50:19;;;;;;;;;;;8.50;49.80;;;;;;4949333;28;75998;-69
2021/03/24 07:52:53;;;;;;;;;;;8.70;49.20;;;;;;4948905;28;77875;-62
2021/03/24 07:55:34;;;;;;;;;;;8.90;48.40;;;;;;4950581;28;75724;-62
2021/03/24 07:58:18;;;;;;;;;;;9.10;47.70;;;;;;4950110;28;75214;-60
2021/03/24 08:00:50;;;;;;;;;;;9.20;47.20;;;;;;4950114;28;75263;-63
2021/03/24 08:03:18;;;;;;;;;;;9.40;47.10;;;;;;4949017;28;76441;-62
2021/03/24 08:05:50;;;;;;;;;;;9.50;46.50;;;;;;4951040;28;75099;-61
2021/03/24 08:08:15;;;;;;;;;;;9.60;46.10;;;;;;4949087;28;78060;-63
2021/03/24 08:10:47;;;;;;;;;;;9.80;45.40;;;;;;4949449;28;77929;-61
2021/03/24 08:13:12;;;;;;;;;;;9.90;44.70;;;;;;4950836;28;75883;-62
2021/03/24 08:15:56;;;;;;;;;;;10.10;43.80;;;;;;4950599;28;75152;-66
2021/03/24 08:18:22;;;;;;;;;;;10.30;43.40;;;;;;4950618;28;75212;-65
2021/03/24 08:20:57;;;;;;;;;;;10.40;42.90;;;;;;4949810;28;75053;-65
2021/03/24 08:23:33;;;;;;;;;;;10.60;42.70;;;;;;4950486;28;75147;-62
2021/03/24 08:26:28;;;;;;;;;;;10.70;42.10;;;;;;4950412;28;74583;-61
2021/03/24 08:29:12;;;;;;;;;;;10.90;41.80;;;;;;4949333;28;75197;-62
2021/03/24 08:31:38;;;;;;;;;;;11.00;41.50;;;;;;4949035;28;76956;-63
2021/03/24 08:34:22;;;;;;;;;;;11.10;40.90;;;;;;4950438;28;75238;-65
2021/03/24 08:36:50;;;;;;;;;;;11.20;40.80;;;;;;4949216;28;75799;-62
2021/03/24 08:39:39;;;;;;;;;;;11.30;40.70;;;;;;4950212;28;75169;-62
2021/03/24 08:42:21;;;;;;;;;;;11.40;40.20;;;;;;4949583;28;75158;-64
2021/03/24 08:44:50;;;;;;;;;;;11.50;40.20;;;;;;4948812;28;78356;-63
2021/03/24 08:47:18;;;;;;;;;;;11.60;40.20;;;;;;4950263;28;75212;-65
2021/03/24 08:49:47;;;;;;;;;;;11.80;40.30;;;;;;4950087;28;75469;-62
2021/03/24 08:52:18;;;;;;;;;;;11.80;40.20;;;;;;4950278;28;74404;-62
2021/03/24 08:54:49;;;;;;;;;;;11.90;40.00;;;;;;4949900;28;75238;-61
2021/03/24 08:57:33;;;;;;;;;;;12.00;39.90;;;;;;4950003;28;75046;-61
2021/03/24 09:00:01;;;;;;;;;;;12.20;39.70;;;;;;4949691;28;75468;-63
2021/03/24 09:02:33;;;;;;;;;;;12.30;39.30;;;;;;4948451;28;77608;-61
2021/03/24 09:05:05;;;;;;;;;;;12.40;39.50;;;;;;4950330;28;75276;-62
2021/03/24 09:07:39;;;;;;;;;;;12.40;39.60;;;;;;4950135;28;75442;-61
2021/03/24 09:10:14;;;;;;;;;;;12.60;39.10;;;;;;4948466;28;77268;-66
2021/03/24 09:13:00;;;;;;;;;;;12.80;39.00;;;;;;4949933;28;74668;-64
2021/03/24 09:15:34;;;;;;;;;;;12.90;38.50;;;;;;4948117;28;75390;-61
2021/03/24 09:18:05;;;;;;;;;;;13.10;38.30;;;;;;4948190;28;76033;-61
2021/03/24 09:20:40;;;;;;;;;;;13.30;37.80;;;;;;4948331;28;77648;-63
2021/03/24 09:23:24;;;;;;;;;;;13.50;37.30;;;;;;4947899;28;77581;-62
2021/03/24 09:26:05;;;;;;;;;;;13.70;37.40;;;;;;4948379;28;75505;-61
2021/03/24 09:28:40;;;;;;;;;;;13.90;37.00;;;;;;4947888;28;77164;-62
2021/03/24 09:31:11;;;;;;;;;;;14.20;36.70;;;;;;4948133;28;77373;-62
2021/03/24 09:33:46;;;;;;;;;;;14.40;36.30;;;;;;4950204;28;75611;-62
2021/03/24 09:36:21;;;;;;;;;;;14.70;36.00;;;;;;4951031;28;75646;-61
2021/03/24 09:38:48;;;;;;;;;;;14.90;35.60;;;;;;4952580;28;74690;-68
2021/03/24 09:41:17;;;;;;;;;;;15.10;35.10;;;;;;4950984;28;76541;-63
2021/03/24 09:43:43;;;;;;;;;;;15.40;34.80;;;;;;4952658;28;75253;-61
2021/03/24 09:46:11;;;;;;;;;;;15.60;34.70;;;;;;4952777;28;74484;-61
2021/03/24 09:48:45;;;;;;;;;;;15.80;34.20;;;;;;4952942;28;74575;-63
2021/03/24 09:51:16;;;;;;;;;;;16.00;33.00;;;;;;4952564;28;74359;-67
2021/03/24 09:53:42;;;;;;;;;;;16.20;33.50;;;;;;4952770;28;75067;-64
2021/03/24 09:56:15;;;;;;;;;;;16.40;33.60;;;;;;4952744;28;74455;-63
2021/03/24 09:58:43;;;;;;;;;;;16.60;33.50;;;;;;4951957;28;75148;-66
2021/03/24 10:01:28;;;;;;;;;;;16.90;33.50;;;;;;4950531;28;76431;-62
2021/03/24 10:04:04;;;;;;;;;;;17.10;33.00;;;;;;4952035;28;75681;-64
2021/03/24 10:06:45;;;;;;;;;;;17.40;32.60;;;;;;4952062;28;74967;-65
2021/03/24 10:09:10;;;;;;;;;;;17.50;31.30;;;;;;4952025;28;75200;-66
2021/03/24 10:11:50;;;;;;;;;;;17.70;31.70;;;;;;4952133;28;75262;-65
2021/03/24 10:14:34;;;;;;;;;;;17.90;31.80;;;;;;4952395;28;74488;-66
2021/03/24 10:17:00;;;;;;;;;;;18.10;31.60;;;;;;4951869;28;75623;-65
2021/03/24 10:19:26;;;;;;;;;;;18.40;31.40;;;;;;4951667;28;76250;-61
2021/03/24 10:21:52;;;;;;;;;;;18.70;30.70;;;;;;4950542;28;78076;-62
2021/03/24 10:24:20;;;;;;;;;;;18.90;30.80;;;;;;4952050;28;75155;-63
2021/03/24 10:26:49;;;;;;;;;;;19.20;30.60;;;;;;4951827;28;75230;-63
2021/03/24 10:29:26;;;;;;;;;;;19.50;30.00;;;;;;4951634;28;75197;-64
2021/03/24 10:31:55;;;;;;;;;;;19.60;30.00;;;;;;4951584;28;75062;-62
2021/03/24 10:34:37;;;;;;;;;;;19.90;29.90;;;;;;4952278;28;75073;-63
2021/03/24 10:37:18;;;;;;;;;;;20.10;29.40;;;;;;4951891;28;75501;-69
2021/03/24 10:39:59;;;;;;;;;;;20.40;29.40;;;;;;4950123;28;76300;-61
2021/03/24 10:42:24;;;;;;;;;;;20.80;29.30;;;;;;4952122;28;75259;-61
2021/03/24 10:45:02;;;;;;;;;;;21.30;27.10;;;;;;4951517;28;74960;-64
2021/03/24 10:47:28;;;;;;;;;;;21.40;27.80;;;;;;4951454;28;74488;-66
2021/03/24 10:50:00;;;;;;;;;;;21.70;27.90;;;;;;4949975;28;76311;-62
2021/03/24 10:52:29;;;;;;;;;;;22.20;27.80;;;;;;4951850;28;75218;-69
2021/03/24 10:55:03;;;;;;;;;;;22.60;27.00;;;;;;4951833;28;75182;-66
2021/03/24 10:57:47;;;;;;;;;;;23.10;26.50;;;;;;4950035;28;77110;-61
2021/03/24 11:00:24;;;;;;;;;;;23.60;26.00;;;;;;4951443;28;74419;-67
2021/03/24 11:02:59;;;;;;;;;;;24.00;25.50;;;;;;4950163;28;77845;-67
2021/03/24 11:05:24;;;;;;;;;;;24.40;25.80;;;;;;4950079;28;75981;-66
2021/03/24 11:08:00;;;;;;;;;;;25.00;24.60;;;;;;4950076;28;75491;-66
2021/03/24 11:10:41;;;;;;;;;;;25.50;24.60;;;;;;4951993;28;74575;-70
2021/03/24 11:13:11;;;;;;;;;;;26.20;24.20;;;;;;4951547;28;75041;-65
2021/03/24 11:15:37;;;;;;;;;;;26.90;22.70;;;;;;4951354;28;75229;-62
2021/03/24 11:18:05;;;;;;;;;;;27.60;22.70;;;;;;4951058;28;74932;-68
2021/03/24 11:20:46;;;;;;;;;;;28.10;22.40;;;;;;4951676;28;74672;-61
2021/03/24 11:23:24;;;;;;;;;;;28.80;22.00;;;;;;4950687;28;74542;-63
2021/03/24 11:25:49;;;;;;;;;;;29.80;21.20;;;;;;4949787;28;75043;-62
2021/03/24 11:28:21;;;;;;;;;;;30.90;20.40;;;;;;4981210;28;76495;-62
2021/03/24 11:31:07;;;;;;;;;;;31.70;20.00;;;;;;4953194;28;75214;-63
2021/03/24 11:33:36;;;;;;;;;;;32.70;18.70;;;;;;4950481;28;75470;-64
2021/03/24 11:36:04;;;;;;;;;;;33.60;18.30;;;;;;4951361;28;74607;-68
2021/03/24 11:38:30;;;;;;;;;;;34.20;17.50;;;;;;4951092;28;75151;-65
2021/03/24 11:41:00;;;;;;;;;;;34.80;17.50;;;;;;4949638;28;76109;-68
2021/03/24 11:43:28;;;;;;;;;;;35.60;17.20;;;;;;4951411;28;74502;-69
2021/03/24 11:46:20;;;;;;;;;;;36.80;16.50;;;;;;4951112;28;75005;-67
2021/03/24 11:48:58;;;;;;;;;;;37.70;16.00;;;;;;4951287;28;75781;-67
2021/03/24 11:51:29;;;;;;;;;;;38.60;15.20;;;;;;4948671;28;76603;-69
2021/03/24 11:53:55;;;;;;;;;;;39.30;14.70;;;;;;4949392;28;75393;-67
2021/03/24 11:56:41;;;;;;;;;;;39.60;14.30;;;;;;4949806;28;74831;-64
2021/03/24 11:59:23;;;;;;;;;;;39.40;13.80;;;;;;4958583;28;75134;-69
2021/03/24 12:02:07;;;;;;;;;;;39.40;14.50;;;;;;4951680;28;74661;-67
2021/03/24 12:04:33;;;;;;;;;;;39.30;14.60;;;;;;4950883;28;75344;-75
2021/03/24 12:07:15;;;;;;;;;;;40.10;13.60;;;;;;4951363;28;74479;-69
2021/03/24 12:09:41;;;;;;;;;;;40.40;14.10;;;;;;4951166;28;75491;-64
2021/03/24 12:12:09;;;;;;;;;;;41.10;13.70;;;;;;4951299;28;75000;-74
2021/03/24 12:14:36;;;;;;;;;;;41.10;13.20;;;;;;4951380;28;75537;-68
2021/03/24 12:17:02;;;;;;;;;;;38.50;13.80;;;;;;4951146;28;75526;-73
2021/03/24 12:19:36;;;;;;;;;;;36.80;15.30;;;;;;4950648;28;75359;-71
2021/03/24 12:22:04;;;;;;;;;;;35.40;15.10;;;;;;4951093;28;74431;-70
2021/03/24 12:24:36;;;;;;;;;;;35.30;15.00;;;;;;4951070;28;75199;-71
2021/03/24 12:27:11;;;;;;;;;;;36.00;14.70;;;;;;4950911;28;74712;-66
2021/03/24 12:29:37;;;;;;;;;;;36.90;14.70;;;;;;4949916;28;75246;-65
2021/03/24 12:32:05;;;;;;;;;;;37.00;14.90;;;;;;4950465;28;74511;-62
2021/03/24 12:34:34;;;;;;;;;;;35.80;14.50;;;;;;4950166;28;76829;-62
2021/03/24 12:37:01;;;;;;;;;;;33.70;16.40;;;;;;4950821;28;75737;-63
2021/03/24 12:39:27;;;;;;;;;;;32.30;16.10;;;;;;4950188;28;75285;-62
2021/03/24 12:41:53;;;;;;;;;;;31.70;16.90;;;;;;4950069;28;75171;-69
2021/03/24 12:44:35;;;;;;;;;;;32.90;16.60;;;;;;4950226;28;76471;-70
2021/03/24 12:47:02;;;;;;;;;;;33.30;16.10;;;;;;4950041;28;75211;-67
2021/03/24 12:49:32;;;;;;;;;;;32.20;16.00;;;;;;4950624;28;74421;-66
2021/03/24 12:52:22;;;;;;;;;;;30.60;18.00;;;;;;4950316;28;75434;-68
2021/03/24 12:54:48;;;;;;;;;;;31.00;17.50;;;;;;4948619;28;77218;-65
2021/03/24 12:57:23;;;;;;;;;;;30.30;16.80;;;;;;4948510;28;75029;-68
2021/03/24 13:00:07;;;;;;;;;;;29.00;17.20;;;;;;4950886;28;74387;-63
2021/03/24 13:02:32;;;;;;;;;;;28.10;18.60;;;;;;4950074;28;74665;-63
2021/03/24 13:05:05;;;;;;;;;;;29.40;17.50;;;;;;4950464;28;74665;-65
2021/03/24 13:07:40;;;;;;;;;;;31.90;16.10;;;;;;4950757;28;75470;-61
2021/03/24 13:10:23;;;;;;;;;;;32.30;15.00;;;;;;4953102;28;75644;-68
2021/03/24 13:12:52;;;;;;;;;;;32.10;15.50;;;;;;4953834;28;74545;-66
2021/03/24 13:15:31;;;;;;;;;;;33.00;15.90;;;;;;4951591;28;76782;-71
2021/03/24 13:18:03;;;;;;;;;;;33.90;15.90;;;;;;4952330;28;75459;-61
2021/03/24 13:20:29;;;;;;;;;;;34.90;14.10;;;;;;4953318;28;75260;-63
2021/03/24 13:22:58;;;;;;;;;;;36.60;13.80;;;;;;4953870;28;74558;-73
2021/03/24 13:25:32;;;;;;;;;;;38.80;13.30;;;;;;4953166;28;74549;-67
2021/03/24 13:28:10;;;;;;;;;;;40.50;12.60;;;;;;4953325;28;74312;-62
2021/03/24 13:30:47;;;;;;;;;;;41.30;12.30;;;;;;4950991;28;77883;-63
2021/03/24 13:33:13;;;;;;;;;;;40.00;12.80;;;;;;4950958;28;75379;-66
2021/03/24 13:35:40;;;;;;;;;;;37.40;14.10;;;;;;4952911;28;75245;-69
2021/03/24 13:38:26;;;;;;;;;;;35.60;15.20;;;;;;4950708;28;77359;-66
2021/03/24 13:40:51;;;;;;;;;;;35.10;14.40;;;;;;4951018;28;74501;-61
2021/03/24 13:43:29;;;;;;;;;;;34.70;14.20;;;;;;4952546;28;75355;-62
2021/03/24 13:46:03;;;;;;;;;;;34.70;15.00;;;;;;4952652;28;75326;-63
2021/03/24 13:48:30;;;;;;;;;;;36.90;13.30;;;;;;4952270;28;75535;-62
2021/03/24 13:51:07;;;;;;;;;;;38.70;12.50;;;;;;4952761;28;76859;-61
2021/03/24 13:53:47;;;;;;;;;;;39.90;12.50;;;;;;4952299;28;75161;-62
2021/03/24 13:56:21;;;;;;;;;;;39.90;12.60;;;;;;4952777;28;74500;-65
2021/03/24 13:58:59;;;;;;;;;;;39.50;12.50;;;;;;4951904;28;74804;-61
2021/03/24 14:01:34;;;;;;;;;;;40.30;12.00;;;;;;4952168;28;75282;-68
2021/03/24 14:04:17;;;;;;;;;;;41.70;11.90;;;;;;4952514;28;74867;-62
2021/03/24 14:06:43;;;;;;;;;;;42.10;11.20;;;;;;4952435;28;75782;-65
2021/03/24 14:09:08;;;;;;;;;;;38.90;11.30;;;;;;4952711;28;74491;-62
2021/03/24 14:11:43;;;;;;;;;;;36.10;13.00;;;;;;4951872;28;76132;-62
2021/03/24 14:14:11;;;;;;;;;;;34.90;13.50;;;;;;4950474;28;75912;-63
2021/03/24 14:16:39;;;;;;;;;;;35.30;13.90;;;;;;4952371;28;74490;-62
2021/03/24 14:19:17;;;;;;;;;;;35.90;13.60;;;;;;4949777;28;75619;-62
2021/03/24 14:21:48;;;;;;;;;;;36.80;13.50;;;;;;4952279;28;74356;-66
2021/03/24 14:24:32;;;;;;;;;;;38.60;13.10;;;;;;4951992;28;74537;-64
2021/03/24 14:27:10;;;;;;;;;;;41.10;12.00;;;;;;4952417;28;75031;-61
2021/03/24 14:29:43;;;;;;;;;;;41.20;11.30;;;;;;4952056;28;75316;-63
2021/03/24 14:32:22;;;;;;;;;;;40.10;11.20;;;;;;4951984;28;75284;-62
2021/03/24 14:34:54;;;;;;;;;;;40.90;11.20;;;;;;4952069;28;74415;-63
2021/03/24 14:37:38;;;;;;;;;;;41.40;11.50;;;;;;4952211;28;75257;-63
2021/03/24 14:40:04;;;;;;;;;;;43.20;11.30;;;;;;4951625;28;75285;-62
2021/03/24 14:42:37;;;;;;;;;;;44.30;10.00;;;;;;4950776;28;76350;-62
2021/03/24 14:45:18;;;;;;;;;;;42.20;10.30;;;;;;4951561;28;75175;-64
2021/03/24 14:48:10;;;;;;;;;;;39.70;11.70;;;;;;4951753;28;75222;-64